Time;durP1;ratioP1;P1;durP2;ratioP2;P2;SDS_P1;SDS_P2;PMS_P1;PMS_P2;Temp;Humidity;BMP_temperature;BMP_pressure;BME280_temperature;BME280_humidity;BME280_pressure;Samples;Min_cycle;Max_cycle;Signal;HPM_P1;HPM_P2
2022/07/04 00:01:49;;;;;;;;;;;;;;;;;;5057950;28;19916;-81
2022/07/04 00:04:14;;;;;;;;;;;;;;;;;;5039790;28;19916;-82
2022/07/04 00:06:39;;;;;;;;;;;;;;;;;;5057385;28;19923;-83
2022/07/04 00:09:05;;;;;;;;;;;;;;;;;;5057259;28;19999;-83
2022/07/04 00:11:30;;;;;;;;;;;;;;;;;;5057241;28;20003;-83
2022/07/04 00:13:55;;;;;;;;;;;;;;;;;;5057070;28;20235;-83
2022/07/04 00:16:21;;;;;;;;;;;;;;;;;;5070196;28;19929;-83
2022/07/04 00:18:46;;;;;;;;;;;;;;;;;;5060411;28;19921;-82
2022/07/04 00:21:11;;;;;;;;;;;;;;;;;;5057167;28;19916;-82
2022/07/04 00:23:37;;;;;;;;;;;;;;;;;;5056806;28;19966;-82
2022/07/04 00:26:02;;;;;;;;;;;;;;;;;;5055942;28;20003;-83
2022/07/04 00:28:27;;;;;;;;;;;;;;;;;;5056886;28;19982;-83
2022/07/04 00:30:53;;;;;;;;;;;;;;;;;;5056633;28;19994;-82
2022/07/04 00:33:18;;;;;;;;;;;;;;;;;;5057149;28;19960;-83
2022/07/04 00:35:43;;;;;;;;;;;;;;;;;;5057077;28;20315;-83
2022/07/04 00:38:08;;;;;;;;;;;;;;;;;;5055664;28;19928;-82
2022/07/04 00:40:34;;;;;;;;;;;;;;;;;;5056824;28;19925;-83
2022/07/04 00:43:02;;;;;;;;;;;;;;;;;;5056289;28;19956;-82
2022/07/04 00:45:27;;;;;;;;;;;;;;;;;;5056356;28;20358;-82
2022/07/04 00:47:52;;;;;;;;;;;;;;;;;;5056368;28;19920;-82
2022/07/04 00:50:18;;;;;;;;;;;;;;;;;;5056545;28;19923;-82
2022/07/04 00:52:43;;;;;;;;;;;;;;;;;;5056524;28;19913;-83
2022/07/04 00:55:09;;;;;;;;;;;;;;;;;;5038488;28;19916;-83
2022/07/04 00:57:34;;;;;;;;;;;;;;;;;;5042851;28;19917;-83
2022/07/04 00:59:59;;;;;;;;;;;;;;;;;;5046007;28;20028;-82
2022/07/04 01:02:25;;;;;;;;;;;;;;;;;;5056075;28;20328;-83
2022/07/04 01:04:50;;;;;;;;;;;;;;;;;;5056346;28;20007;-83
2022/07/04 01:07:15;;;;;;;;;;;;;;;;;;5038528;28;19971;-83
2022/07/04 01:09:41;;;;;;;;;;;;;;;;;;5038445;28;19975;-83
2022/07/04 01:12:06;;;;;;;;;;;;;;;;;;5038319;28;20388;-83
2022/07/04 01:14:31;;;;;;;;;;;;;;;;;;5038121;28;19916;-82
2022/07/04 01:16:56;;;;;;;;;;;;;;;;;;5055796;28;20262;-82
2022/07/04 01:19:22;;;;;;;;;;;;;;;;;;5060207;28;19917;-82
2022/07/04 01:21:48;;;;;;;;;;;;;;;;;;5056745;28;19917;-82
2022/07/04 01:24:14;;;;;;;;;;;;;;;;;;5055848;28;19924;-81
2022/07/04 01:26:39;;;;;;;;;;;;;;;;;;5037823;28;19917;-84
2022/07/04 01:29:07;;;;;;;;;;;;;;;;;;5055334;28;20062;-83
2022/07/04 01:31:32;;;;;;;;;;;;;;;;;;5055590;28;19917;-83
2022/07/04 01:33:58;;;;;;;;;;;;;;;;;;5037841;28;19939;-82
2022/07/04 01:36:23;;;;;;;;;;;;;;;;;;5055359;28;19916;-82
2022/07/04 01:38:49;;;;;;;;;;;;;;;;;;5055615;28;20347;-82
2022/07/04 01:41:14;;;;;;;;;;;;;;;;;;5069179;28;19978;-81
2022/07/04 01:43:40;;;;;;;;;;;;;;;;;;5021295;28;19916;-82
2022/07/04 01:46:05;;;;;;;;;;;;;;;;;;5055144;28;19966;-82
2022/07/04 01:48:31;;;;;;;;;;;;;;;;;;5037368;28;19956;-82
2022/07/04 01:50:56;;;;;;;;;;;;;;;;;;5055100;28;19971;-82
2022/07/04 01:53:21;;;;;;;;;;;;;;;;;;5055477;28;19980;-81
2022/07/04 01:55:47;;;;;;;;;;;;;;;;;;5055057;28;19917;-82
2022/07/04 01:58:12;;;;;;;;;;;;;;;;;;5055089;28;19917;-81
2022/07/04 02:03:21;;;;;;;;;;;;;;;;;;5044503;28;19947;-83
2022/07/04 02:05:46;;;;;;;;;;;;;;;;;;5054916;28;20311;-83
2022/07/04 02:08:12;;;;;;;;;;;;;;;;;;5055146;28;20345;-82
2022/07/04 02:10:37;;;;;;;;;;;;;;;;;;5055104;28;19917;-82
2022/07/04 02:13:03;;;;;;;;;;;;;;;;;;5037156;28;20334;-82
2022/07/04 02:15:32;;;;;;;;;;;;;;;;;;5054981;28;19917;-82
2022/07/04 02:17:58;;;;;;;;;;;;;;;;;;5036841;28;20304;-82
2022/07/04 02:20:23;;;;;;;;;;;;;;;;;;5036865;28;19946;-82
2022/07/04 02:22:48;;;;;;;;;;;;;;;;;;5051511;28;19925;-83
2022/07/04 02:25:14;;;;;;;;;;;;;;;;;;5055509;28;19917;-83
2022/07/04 02:27:39;;;;;;;;;;;;;;;;;;5054986;28;19923;-82
2022/07/04 02:30:05;;;;;;;;;;;;;;;;;;5054927;28;20012;-81
2022/07/04 02:32:30;;;;;;;;;;;;;;;;;;5054518;28;20187;-82
2022/07/04 02:34:56;;;;;;;;;;;;;;;;;;5054775;28;20007;-82
2022/07/04 02:37:21;;;;;;;;;;;;;;;;;;5054751;28;20018;-82
2022/07/04 02:39:46;;;;;;;;;;;;;;;;;;5054946;28;19924;-82
2022/07/04 02:42:11;;;;;;;;;;;;;;;;;;5057842;28;19920;-81
2022/07/04 02:44:37;;;;;;;;;;;;;;;;;;5048907;28;19936;-82
2022/07/04 02:47:02;;;;;;;;;;;;;;;;;;5054415;28;19912;-82
2022/07/04 02:49:28;;;;;;;;;;;;;;;;;;5057169;28;19917;-82
2022/07/04 02:51:53;;;;;;;;;;;;;;;;;;5058736;28;20378;-82
2022/07/04 02:54:19;;;;;;;;;;;;;;;;;;5040830;28;19970;-82
2022/07/04 02:56:47;;;;;;;;;;;;;;;;;;5040555;28;19916;-82
2022/07/04 02:59:12;;;;;;;;;;;;;;;;;;5058563;28;19924;-82
2022/07/04 03:01:38;;;;;;;;;;;;;;;;;;5040885;28;19917;-82
2022/07/04 03:04:03;;;;;;;;;;;;;;;;;;5069595;28;19948;-82
2022/07/04 03:06:29;;;;;;;;;;;;;;;;;;5044291;28;19921;-82
2022/07/04 03:08:54;;;;;;;;;;;;;;;;;;5058231;28;19924;-81
2022/07/04 03:11:19;;;;;;;;;;;;;;;;;;5058705;28;19924;-81
2022/07/04 03:13:45;;;;;;;;;;;;;;;;;;5040412;28;20362;-81
2022/07/04 03:16:10;;;;;;;;;;;;;;;;;;5040120;28;20323;-81
2022/07/04 03:18:36;;;;;;;;;;;;;;;;;;5058232;28;20011;-82
2022/07/04 03:21:04;;;;;;;;;;;;;;;;;;5058112;28;19956;-83
2022/07/04 03:23:29;;;;;;;;;;;;;;;;;;5058372;28;20334;-82
2022/07/04 03:25:54;;;;;;;;;;;;;;;;;;5073848;28;19976;-85
2022/07/04 03:28:20;;;;;;;;;;;;;;;;;;5058390;28;19920;-82
2022/07/04 03:30:45;;;;;;;;;;;;;;;;;;5057829;28;19924;-82
2022/07/04 03:33:17;;;;;;;;;;;;;;;;;;5058247;28;20270;-83
2022/07/04 03:35:42;;;;;;;;;;;;;;;;;;5023942;28;19916;-82
2022/07/04 03:38:07;;;;;;;;;;;;;;;;;;5039812;28;19917;-82
2022/07/04 03:40:35;;;;;;;;;;;;;;;;;;5057552;28;19917;-83
2022/07/04 03:43:00;;;;;;;;;;;;;;;;;;5057789;28;19921;-82
2022/07/04 03:45:25;;;;;;;;;;;;;;;;;;5063665;28;19901;-81
2022/07/04 03:47:51;;;;;;;;;;;;;;;;;;5067014;28;19921;-84
2022/07/04 03:50:16;;;;;;;;;;;;;;;;;;5057792;28;19923;-82
2022/07/04 03:52:41;;;;;;;;;;;;;;;;;;5056943;28;19917;-82
2022/07/04 03:55:07;;;;;;;;;;;;;;;;;;5057484;28;20007;-82
2022/07/04 03:57:32;;;;;;;;;;;;;;;;;;5039712;28;19948;-82
2022/07/04 03:59:58;;;;;;;;;;;;;;;;;;5037877;28;20322;-82
2022/07/04 04:02:23;;;;;;;;;;;;;;;;;;5057302;28;19924;-82
2022/07/04 04:07:32;;;;;;;;;;;;;;;;;;5070719;28;19912;-82
2022/07/04 04:09:58;;;;;;;;;;;;;;;;;;5057554;28;19917;-83
2022/07/04 04:12:23;;;;;;;;;;;;;;;;;;5057363;28;19917;-82
2022/07/04 04:14:48;;;;;;;;;;;;;;;;;;5022584;28;20324;-83
2022/07/04 04:17:14;;;;;;;;;;;;;;;;;;5057217;28;20011;-82
2022/07/04 04:19:39;;;;;;;;;;;;;;;;;;5057110;28;19969;-83
2022/07/04 04:22:04;;;;;;;;;;;;;;;;;;5056920;28;19916;-82
2022/07/04 04:24:30;;;;;;;;;;;;;;;;;;5057002;28;19917;-82
2022/07/04 04:26:56;;;;;;;;;;;;;;;;;;5059743;28;19916;-82
2022/07/04 04:29:21;;;;;;;;;;;;;;;;;;5065960;28;19925;-83
2022/07/04 04:31:46;;;;;;;;;;;;;;;;;;5057123;28;19917;-83
2022/07/04 04:34:12;;;;;;;;;;;;;;;;;;5039102;28;19983;-82
2022/07/04 04:36:37;;;;;;;;;;;;;;;;;;5022550;28;19982;-82
2022/07/04 04:39:03;;;;;;;;;;;;;;;;;;5056558;28;19924;-84
2022/07/04 04:41:28;;;;;;;;;;;;;;;;;;5055616;28;19931;-81
2022/07/04 04:43:53;;;;;;;;;;;;;;;;;;5055364;28;19949;-83
2022/07/04 04:46:19;;;;;;;;;;;;;;;;;;5042954;28;20327;-82
2022/07/04 04:48:44;;;;;;;;;;;;;;;;;;5047906;28;19909;-82
2022/07/04 04:51:11;;;;;;;;;;;;;;;;;;5041452;28;20239;-82
2022/07/04 04:53:37;;;;;;;;;;;;;;;;;;5036850;28;20301;-85
2022/07/04 04:56:02;;;;;;;;;;;;;;;;;;5036850;28;19925;-84
2022/07/04 04:58:28;;;;;;;;;;;;;;;;;;5036862;28;19924;-82
2022/07/04 05:00:53;;;;;;;;;;;;;;;;;;5036155;28;19925;-83
2022/07/04 05:03:18;;;;;;;;;;;;;;;;;;5036345;28;19917;-84
2022/07/04 05:05:44;;;;;;;;;;;;;;;;;;5036386;28;19933;-83
2022/07/04 05:08:09;;;;;;;;;;;;;;;;;;5018875;28;19924;-84
2022/07/04 05:10:34;;;;;;;;;;;;;;;;;;5050274;28;20000;-83
2022/07/04 05:13:00;;;;;;;;;;;;;;;;;;5035763;28;20008;-84
2022/07/04 05:15:25;;;;;;;;;;;;;;;;;;5036265;28;19918;-84
2022/07/04 05:17:57;;;;;;;;;;;;;;;;;;5041918;28;19917;-83
2022/07/04 05:20:22;;;;;;;;;;;;;;;;;;5035414;28;20302;-83
2022/07/04 05:22:47;;;;;;;;;;;;;;;;;;5036060;28;19924;-83
2022/07/04 05:25:13;;;;;;;;;;;;;;;;;;5035658;28;19917;-84
2022/07/04 05:27:39;;;;;;;;;;;;;;;;;;5035767;28;19924;-84
2022/07/04 05:30:05;;;;;;;;;;;;;;;;;;5018762;28;19917;-83
2022/07/04 05:32:30;;;;;;;;;;;;;;;;;;5040704;28;20373;-85
2022/07/04 05:34:56;;;;;;;;;;;;;;;;;;5035585;28;19917;-83
2022/07/04 05:37:21;;;;;;;;;;;;;;;;;;5018111;28;19921;-83
2022/07/04 05:39:50;;;;;;;;;;;;;;;;;;5018670;28;19924;-86
2022/07/04 05:42:15;;;;;;;;;;;;;;;;;;5036094;28;19922;-86
2022/07/04 05:44:40;;;;;;;;;;;;;;;;;;5036424;28;19923;-84
2022/07/04 05:47:06;;;;;;;;;;;;;;;;;;5035793;28;19921;-83
2022/07/04 05:49:31;;;;;;;;;;;;;;;;;;5035419;28;19931;-84
2022/07/04 05:51:56;;;;;;;;;;;;;;;;;;5044073;28;20007;-84
2022/07/04 05:54:22;;;;;;;;;;;;;;;;;;5036128;28;19924;-82
2022/07/04 05:56:47;;;;;;;;;;;;;;;;;;5035447;28;20270;-80
2022/07/04 05:59:13;;;;;;;;;;;;;;;;;;5036823;28;19921;-81
2022/07/04 06:01:39;;;;;;;;;;;;;;;;;;5019386;28;20047;-82
2022/07/04 06:04:05;;;;;;;;;;;;;;;;;;5035775;28;19924;-83
2022/07/04 06:06:30;;;;;;;;;;;;;;;;;;5036061;28;19917;-81
2022/07/04 06:08:57;;;;;;;;;;;;;;;;;;5036086;28;19917;-82
2022/07/04 06:11:23;;;;;;;;;;;;;;;;;;5039042;28;19948;-81
2022/07/04 06:13:49;;;;;;;;;;;;;;;;;;5023393;28;19917;-82
2022/07/04 06:16:15;;;;;;;;;;;;;;;;;;5037998;28;20051;-82
2022/07/04 06:18:41;;;;;;;;;;;;;;;;;;5029900;28;19917;-83
2022/07/04 06:21:07;;;;;;;;;;;;;;;;;;5044440;28;19921;-81
2022/07/04 06:23:35;;;;;;;;;;;;;;;;;;5043609;28;19920;-80
2022/07/04 06:26:01;;;;;;;;;;;;;;;;;;5047191;28;19917;-82
2022/07/04 06:28:26;;;;;;;;;;;;;;;;;;5039425;28;19960;-82
2022/07/04 06:30:52;;;;;;;;;;;;;;;;;;5039002;28;19919;-81
2022/07/04 06:33:18;;;;;;;;;;;;;;;;;;5029278;28;19921;-83
2022/07/04 06:35:56;;;;;;;;;;;;;;;;;;5018690;28;19920;-80
2022/07/04 06:38:31;;;;;;;;;;;;;;;;;;5036699;28;20465;-81
2022/07/04 06:40:57;;;;;;;;;;;;;;;;;;5038067;28;19921;-83
2022/07/04 06:43:23;;;;;;;;;;;;;;;;;;5035193;28;20066;-81
2022/07/04 06:45:48;;;;;;;;;;;;;;;;;;5018648;28;20040;-81
2022/07/04 06:48:13;;;;;;;;;;;;;;;;;;5018441;28;19919;-81
2022/07/04 06:50:40;;;;;;;;;;;;;;;;;;5044454;28;19921;-81
2022/07/04 06:53:06;;;;;;;;;;;;;;;;;;5036286;28;19913;-81
2022/07/04 06:55:31;;;;;;;;;;;;;;;;;;5037295;28;19917;-82
2022/07/04 06:57:57;;;;;;;;;;;;;;;;;;5036347;28;19960;-82
2022/07/04 07:00:22;;;;;;;;;;;;;;;;;;5001366;28;19918;-83
2022/07/04 07:02:47;;;;;;;;;;;;;;;;;;5035423;28;19992;-82
2022/07/04 07:05:13;;;;;;;;;;;;;;;;;;5017966;28;19960;-80
2022/07/04 07:07:38;;;;;;;;;;;;;;;;;;5016899;28;20335;-81
2022/07/04 07:10:06;;;;;;;;;;;;;;;;;;5038666;28;19917;-80
2022/07/04 07:12:31;;;;;;;;;;;;;;;;;;5036345;28;19932;-81
2022/07/04 07:14:57;;;;;;;;;;;;;;;;;;5033745;28;19924;-80
2022/07/04 07:17:22;;;;;;;;;;;;;;;;;;5033627;28;19918;-81
2022/07/04 07:19:48;;;;;;;;;;;;;;;;;;5032579;28;19960;-78
2022/07/04 07:22:14;;;;;;;;;;;;;;;;;;5034116;28;19917;-81
2022/07/04 07:24:39;;;;;;;;;;;;;;;;;;5034813;28;19917;-79
2022/07/04 07:27:04;;;;;;;;;;;;;;;;;;5053119;28;19952;-81
2022/07/04 07:29:30;;;;;;;;;;;;;;;;;;5033969;28;19917;-80
2022/07/04 07:31:55;;;;;;;;;;;;;;;;;;5059107;28;19924;-79
2022/07/04 07:34:20;;;;;;;;;;;;;;;;;;5052790;28;19927;-78
2022/07/04 07:36:46;;;;;;;;;;;;;;;;;;5057038;28;19916;-79
2022/07/04 07:39:11;;;;;;;;;;;;;;;;;;5057238;28;19921;-79
2022/07/04 07:41:36;;;;;;;;;;;;;;;;;;5058079;28;20018;-79
2022/07/04 07:44:02;;;;;;;;;;;;;;;;;;5057823;28;19917;-80
2022/07/04 07:46:27;;;;;;;;;;;;;;;;;;5039491;28;20337;-79
2022/07/04 07:48:52;;;;;;;;;;;;;;;;;;5057602;28;19916;-80
2022/07/04 07:51:18;;;;;;;;;;;;;;;;;;5062194;28;19917;-79
2022/07/04 07:53:43;;;;;;;;;;;;;;;;;;5060274;28;19975;-79
2022/07/04 07:56:09;;;;;;;;;;;;;;;;;;5057696;28;19948;-81
2022/07/04 07:58:34;;;;;;;;;;;;;;;;;;5040185;28;19916;-81
2022/07/04 08:01:01;;;;;;;;;;;;;;;;;;5057503;28;20305;-81
2022/07/04 08:06:11;;;;;;;;;;;;;;;;;;5057446;28;19975;-80
2022/07/04 08:08:37;;;;;;;;;;;;;;;;;;5057558;28;19916;-80
2022/07/04 08:11:02;;;;;;;;;;;;;;;;;;5057164;28;19917;-80
2022/07/04 08:13:28;;;;;;;;;;;;;;;;;;5045419;28;19917;-81
2022/07/04 08:15:53;;;;;;;;;;;;;;;;;;5057950;28;19967;-81
2022/07/04 08:18:18;;;;;;;;;;;;;;;;;;5057326;28;19924;-81
2022/07/04 08:20:44;;;;;;;;;;;;;;;;;;5057227;28;20228;-81
2022/07/04 08:23:09;;;;;;;;;;;;;;;;;;5056893;28;20429;-80
2022/07/04 08:25:35;;;;;;;;;;;;;;;;;;5057315;28;19916;-80
2022/07/04 08:28:00;;;;;;;;;;;;;;;;;;5057218;28;19913;-81
2022/07/04 08:30:25;;;;;;;;;;;;;;;;;;5056723;28;20374;-80
2022/07/04 08:32:51;;;;;;;;;;;;;;;;;;5064323;28;19924;-81
2022/07/04 08:35:16;;;;;;;;;;;;;;;;;;5061716;28;19921;-80
2022/07/04 08:37:41;;;;;;;;;;;;;;;;;;5039361;28;19917;-81
2022/07/04 08:40:07;;;;;;;;;;;;;;;;;;5057036;28;19917;-81
2022/07/04 08:42:37;;;;;;;;;;;;;;;;;;5057209;28;19921;-81
2022/07/04 08:45:02;;;;;;;;;;;;;;;;;;5056690;28;19917;-80
2022/07/04 08:47:28;;;;;;;;;;;;;;;;;;5056132;28;20219;-81
2022/07/04 08:49:54;;;;;;;;;;;;;;;;;;5056804;28;20015;-80
2022/07/04 08:52:24;;;;;;;;;;;;;;;;;;5056929;28;19923;-82
2022/07/04 09:00:17;;;;;;;;;;;;;;;;;;5055928;28;19923;-81
2022/07/04 09:02:43;;;;;;;;;;;;;;;;;;5038882;28;19917;-81
2022/07/04 09:05:08;;;;;;;;;;;;;;;;;;5056438;28;20231;-81
2022/07/04 09:07:34;;;;;;;;;;;;;;;;;;5039088;28;19924;-81
2022/07/04 09:09:59;;;;;;;;;;;;;;;;;;5056380;28;20258;-81
2022/07/04 09:12:24;;;;;;;;;;;;;;;;;;5038124;28;19917;-81
2022/07/04 09:14:52;;;;;;;;;;;;;;;;;;5059508;28;19924;-81
2022/07/04 09:17:17;;;;;;;;;;;;;;;;;;5040534;28;19955;-81
2022/07/04 09:19:42;;;;;;;;;;;;;;;;;;5056391;28;19972;-80
2022/07/04 09:22:11;;;;;;;;;;;;;;;;;;5056086;28;19952;-81
2022/07/04 09:24:45;;;;;;;;;;;;;;;;;;5056311;28;19924;-81
2022/07/04 09:27:11;;;;;;;;;;;;;;;;;;5055916;28;20267;-82
2022/07/04 09:29:52;;;;;;;;;;;;;;;;;;5055615;28;19925;-81
2022/07/04 09:32:32;;;;;;;;;;;;;;;;;;5056619;28;19917;-80
2022/07/04 09:34:57;;;;;;;;;;;;;;;;;;5065101;28;19917;-80
2022/07/04 09:37:23;;;;;;;;;;;;;;;;;;5017229;28;19917;-80
2022/07/04 09:39:48;;;;;;;;;;;;;;;;;;5017846;28;19941;-79
2022/07/04 09:42:14;;;;;;;;;;;;;;;;;;5035620;28;19921;-80
2022/07/04 09:44:46;;;;;;;;;;;;;;;;;;5017739;28;19917;-81
2022/07/04 09:47:24;;;;;;;;;;;;;;;;;;5035836;28;19974;-79
2022/07/04 09:50:03;;;;;;;;;;;;;;;;;;5002146;28;20012;-80
2022/07/04 09:52:49;;;;;;;;;;;;;;;;;;5036725;28;20025;-82
2022/07/04 09:55:27;;;;;;;;;;;;;;;;;;5031729;28;19924;-81
2022/07/04 09:57:53;;;;;;;;;;;;;;;;;;5002551;28;19967;-78
2022/07/04 10:00:22;;;;;;;;;;;;;;;;;;5035531;28;19917;-79
2022/07/04 10:02:47;;;;;;;;;;;;;;;;;;5017878;28;19917;-79
2022/07/04 10:05:13;;;;;;;;;;;;;;;;;;5035794;28;20250;-79
2022/07/04 10:07:47;;;;;;;;;;;;;;;;;;5017559;28;19917;-79
2022/07/04 10:10:31;;;;;;;;;;;;;;;;;;5035340;28;19917;-81
2022/07/04 10:12:57;;;;;;;;;;;;;;;;;;5035309;28;20291;-82
2022/07/04 10:15:23;;;;;;;;;;;;;;;;;;5023206;28;19932;-80
2022/07/04 10:17:48;;;;;;;;;;;;;;;;;;5038355;28;19922;-81
2022/07/04 10:20:14;;;;;;;;;;;;;;;;;;5017329;28;19920;-80
2022/07/04 10:22:39;;;;;;;;;;;;;;;;;;5017404;28;19925;-79
2022/07/04 10:25:05;;;;;;;;;;;;;;;;;;5016732;28;19917;-79
2022/07/04 10:27:30;;;;;;;;;;;;;;;;;;5017406;28;19917;-79
2022/07/04 10:29:56;;;;;;;;;;;;;;;;;;5034741;28;19975;-79
2022/07/04 10:32:21;;;;;;;;;;;;;;;;;;5017595;28;20231;-79
2022/07/04 10:34:47;;;;;;;;;;;;;;;;;;5017043;28;20305;-81
2022/07/04 10:37:13;;;;;;;;;;;;;;;;;;5041153;28;20275;-79
2022/07/04 10:39:38;;;;;;;;;;;;;;;;;;5034830;28;19917;-79
2022/07/04 10:42:06;;;;;;;;;;;;;;;;;;5013071;28;20366;-79
2022/07/04 10:44:37;;;;;;;;;;;;;;;;;;5014910;28;19917;-80
2022/07/04 10:47:02;;;;;;;;;;;;;;;;;;5013878;28;20323;-80
2022/07/04 10:49:28;;;;;;;;;;;;;;;;;;5014706;28;19917;-78
2022/07/04 10:51:54;;;;;;;;;;;;;;;;;;5014608;28;19927;-79
2022/07/04 10:54:32;;;;;;;;;;;;;;;;;;5015783;28;20275;-79
2022/07/04 10:57:09;;;;;;;;;;;;;;;;;;5019943;28;20045;-79
2022/07/04 10:59:34;;;;;;;;;;;;;;;;;;5015857;28;20124;-79
2022/07/04 11:02:11;;;;;;;;;;;;;;;;;;5015123;28;19960;-81
2022/07/04 11:04:56;;;;;;;;;;;;;;;;;;5015064;28;20287;-79
2022/07/04 11:07:30;;;;;;;;;;;;;;;;;;5014767;28;19928;-79
2022/07/04 11:10:16;;;;;;;;;;;;;;;;;;5015945;28;20068;-81
2022/07/04 11:12:53;;;;;;;;;;;;;;;;;;5018232;28;20059;-80
2022/07/04 11:15:25;;;;;;;;;;;;;;;;;;5018338;28;20332;-80
2022/07/04 11:17:51;;;;;;;;;;;;;;;;;;5020406;28;20393;-79
2022/07/04 11:20:17;;;;;;;;;;;;;;;;;;5018781;28;19926;-79
2022/07/04 11:22:42;;;;;;;;;;;;;;;;;;5018068;28;19917;-83
2022/07/04 11:25:08;;;;;;;;;;;;;;;;;;5018677;28;20258;-86
2022/07/04 11:27:33;;;;;;;;;;;;;;;;;;5017208;28;20328;-85
2022/07/04 11:29:58;;;;;;;;;;;;;;;;;;5018739;28;19922;-86
2022/07/04 11:32:30;;;;;;;;;;;;;;;;;;5018818;28;19918;-86
2022/07/04 11:34:55;;;;;;;;;;;;;;;;;;5017427;28;19924;-86
2022/07/04 11:37:21;;;;;;;;;;;;;;;;;;5020860;28;19921;-85
2022/07/04 11:39:50;;;;;;;;;;;;;;;;;;5029380;28;19921;-85
2022/07/04 11:45:02;;;;;;;;;;;;;;;;;;5037631;28;19926;-86
2022/07/04 11:47:35;;;;;;;;;;;;;;;;;;5037919;28;19999;-85
2022/07/04 11:50:00;;;;;;;;;;;;;;;;;;5037654;28;19984;-86
2022/07/04 11:52:27;;;;;;;;;;;;;;;;;;5020049;28;19920;-86
2022/07/04 11:54:52;;;;;;;;;;;;;;;;;;5037962;28;20285;-85
2022/07/04 11:57:19;;;;;;;;;;;;;;;;;;5019900;28;20063;-86
2022/07/04 11:59:51;;;;;;;;;;;;;;;;;;5032405;28;19921;-85
2022/07/04 12:02:17;;;;;;;;;;;;;;;;;;5038994;28;19924;-86
2022/07/04 12:04:42;;;;;;;;;;;;;;;;;;5037898;28;20420;-86
2022/07/04 12:07:11;;;;;;;;;;;;;;;;;;5037205;28;19917;-85
2022/07/04 12:09:37;;;;;;;;;;;;;;;;;;5037632;28;19917;-85
2022/07/04 12:12:02;;;;;;;;;;;;;;;;;;5037542;28;19925;-86
2022/07/04 12:14:27;;;;;;;;;;;;;;;;;;5019808;28;20335;-85
2022/07/04 12:17:12;;;;;;;;;;;;;;;;;;5019643;28;20343;-84
2022/07/04 12:19:38;;;;;;;;;;;;;;;;;;5045219;28;19909;-85
2022/07/04 12:22:03;;;;;;;;;;;;;;;;;;5028480;28;19917;-85
2022/07/04 12:24:28;;;;;;;;;;;;;;;;;;5040518;28;19917;-85
2022/07/04 12:26:53;;;;;;;;;;;;;;;;;;5037141;28;19917;-85
2022/07/04 12:29:27;;;;;;;;;;;;;;;;;;5023598;28;20275;-85
2022/07/04 12:31:53;;;;;;;;;;;;;;;;;;5041421;28;19921;-85
2022/07/04 12:34:18;;;;;;;;;;;;;;;;;;5050999;28;19917;-86
2022/07/04 12:37:06;;;;;;;;;;;;;;;;;;5049149;28;19940;-84
2022/07/04 12:39:31;;;;;;;;;;;;;;;;;;5030790;28;19917;-85
2022/07/04 12:42:23;;;;;;;;;;;;;;;;;;5054619;28;20021;-85
2022/07/04 12:44:49;;;;;;;;;;;;;;;;;;5033620;28;19940;-85
2022/07/04 12:47:14;;;;;;;;;;;;;;;;;;5036982;28;19949;-86
2022/07/04 12:49:44;;;;;;;;;;;;;;;;;;5036650;28;20006;-86
2022/07/04 12:52:11;;;;;;;;;;;;;;;;;;5002851;28;19917;-86
2022/07/04 12:54:36;;;;;;;;;;;;;;;;;;5019060;28;19917;-88
2022/07/04 12:57:06;;;;;;;;;;;;;;;;;;5018938;28;20007;-86
2022/07/04 12:59:31;;;;;;;;;;;;;;;;;;5036287;28;19965;-86
2022/07/04 13:01:56;;;;;;;;;;;;;;;;;;5048524;28;19905;-87
2022/07/04 13:04:22;;;;;;;;;;;;;;;;;;5047224;28;19968;-86
2022/07/04 13:06:47;;;;;;;;;;;;;;;;;;5003208;28;19917;-86
2022/07/04 13:09:12;;;;;;;;;;;;;;;;;;5036107;28;20350;-86
2022/07/04 13:14:21;;;;;;;;;;;;;;;;;;5036079;28;19927;-86
2022/07/04 13:16:47;;;;;;;;;;;;;;;;;;5036576;28;20371;-87
2022/07/04 13:19:12;;;;;;;;;;;;;;;;;;5035881;28;20361;-85
2022/07/04 13:21:38;;;;;;;;;;;;;;;;;;5020696;28;20008;-85
2022/07/04 13:24:03;;;;;;;;;;;;;;;;;;5051873;28;20228;-86
2022/07/04 13:26:30;;;;;;;;;;;;;;;;;;5018836;28;19917;-88
2022/07/04 13:28:56;;;;;;;;;;;;;;;;;;5036073;28;20003;-86
2022/07/04 13:31:21;;;;;;;;;;;;;;;;;;5036012;28;19960;-86
2022/07/04 13:33:46;;;;;;;;;;;;;;;;;;5035229;28;19924;-86
2022/07/04 13:36:13;;;;;;;;;;;;;;;;;;5035945;28;19960;-85
2022/07/04 13:38:38;;;;;;;;;;;;;;;;;;5018092;28;20353;-85
2022/07/04 13:41:04;;;;;;;;;;;;;;;;;;5035994;28;19918;-86
2022/07/04 13:43:29;;;;;;;;;;;;;;;;;;5046997;28;19925;-87
2022/07/04 13:45:55;;;;;;;;;;;;;;;;;;5026391;28;19952;-85
2022/07/04 13:48:20;;;;;;;;;;;;;;;;;;5038609;28;19923;-86
2022/07/04 13:50:46;;;;;;;;;;;;;;;;;;5042949;28;19917;-86
2022/07/04 13:53:11;;;;;;;;;;;;;;;;;;5022331;28;19924;-86
2022/07/04 13:55:37;;;;;;;;;;;;;;;;;;5018484;28;20319;-87
2022/07/04 13:58:02;;;;;;;;;;;;;;;;;;5001699;28;19917;-86
2022/07/04 14:00:28;;;;;;;;;;;;;;;;;;5036232;28;20007;-86
2022/07/04 14:02:53;;;;;;;;;;;;;;;;;;5035142;28;20004;-86
2022/07/04 14:05:18;;;;;;;;;;;;;;;;;;5049253;28;19929;-86
2022/07/04 14:07:44;;;;;;;;;;;;;;;;;;5035432;28;19924;-86
2022/07/04 14:10:09;;;;;;;;;;;;;;;;;;5035339;28;20394;-86
2022/07/04 14:12:34;;;;;;;;;;;;;;;;;;5035245;28;19947;-86
2022/07/04 14:15:00;;;;;;;;;;;;;;;;;;5034999;28;19979;-85
2022/07/04 14:17:25;;;;;;;;;;;;;;;;;;5034996;28;19952;-86
2022/07/04 14:19:50;;;;;;;;;;;;;;;;;;5035299;28;19917;-86
2022/07/04 14:22:16;;;;;;;;;;;;;;;;;;5001177;28;19917;-86
2022/07/04 14:24:41;;;;;;;;;;;;;;;;;;5039293;28;19912;-85
2022/07/04 14:27:06;;;;;;;;;;;;;;;;;;5045041;28;20011;-85
2022/07/04 14:29:34;;;;;;;;;;;;;;;;;;5035132;28;20023;-86
2022/07/04 14:31:59;;;;;;;;;;;;;;;;;;5034710;28;19917;-86
2022/07/04 14:34:24;;;;;;;;;;;;;;;;;;5017223;28;19974;-86
2022/07/04 14:36:50;;;;;;;;;;;;;;;;;;5034661;28;20016;-86
2022/07/04 14:39:15;;;;;;;;;;;;;;;;;;5034603;28;19967;-86
2022/07/04 14:41:40;;;;;;;;;;;;;;;;;;5034756;28;19967;-86
2022/07/04 14:44:06;;;;;;;;;;;;;;;;;;5033943;28;19959;-86
2022/07/04 14:46:31;;;;;;;;;;;;;;;;;;5047195;28;19992;-84
2022/07/04 14:48:57;;;;;;;;;;;;;;;;;;5020461;28;19995;-86
2022/07/04 14:51:22;;;;;;;;;;;;;;;;;;5017022;28;20376;-86
2022/07/04 14:53:48;;;;;;;;;;;;;;;;;;5016921;28;20133;-85
2022/07/04 14:56:13;;;;;;;;;;;;;;;;;;5000677;28;19924;-86
2022/07/04 14:58:38;;;;;;;;;;;;;;;;;;5034792;28;20348;-84
2022/07/04 15:01:04;;;;;;;;;;;;;;;;;;5034472;28;20338;-86
2022/07/04 15:03:29;;;;;;;;;;;;;;;;;;5000687;28;20378;-86
2022/07/04 15:05:54;;;;;;;;;;;;;;;;;;5034769;28;20005;-86
2022/07/04 15:08:20;;;;;;;;;;;;;;;;;;5050981;28;20346;-87
2022/07/04 15:10:45;;;;;;;;;;;;;;;;;;5034830;28;19917;-86
2022/07/04 15:13:10;;;;;;;;;;;;;;;;;;5034673;28;20322;-86
2022/07/04 15:15:36;;;;;;;;;;;;;;;;;;5016602;28;19917;-86
2022/07/04 15:18:01;;;;;;;;;;;;;;;;;;5034764;28;19917;-86
2022/07/04 15:25:54;;;;;;;;;;;;;;;;;;5034347;28;19928;-86
2022/07/04 15:28:20;;;;;;;;;;;;;;;;;;5028819;28;19905;-84
2022/07/04 15:30:45;;;;;;;;;;;;;;;;;;5039296;28;20258;-86
2022/07/04 15:33:14;;;;;;;;;;;;;;;;;;5034103;28;19940;-86
2022/07/04 15:35:46;;;;;;;;;;;;;;;;;;5034424;28;20323;-85
2022/07/04 15:38:11;;;;;;;;;;;;;;;;;;5000460;28;20430;-86
2022/07/04 15:40:36;;;;;;;;;;;;;;;;;;5034228;28;20008;-86
2022/07/04 15:43:02;;;;;;;;;;;;;;;;;;5034158;28;19967;-86
2022/07/04 15:45:27;;;;;;;;;;;;;;;;;;5034099;28;19960;-86
2022/07/04 15:47:53;;;;;;;;;;;;;;;;;;5016498;28;20004;-86
2022/07/04 15:50:18;;;;;;;;;;;;;;;;;;5051384;28;19921;-86
2022/07/04 15:52:43;;;;;;;;;;;;;;;;;;5035730;28;20465;-85
2022/07/04 15:55:09;;;;;;;;;;;;;;;;;;5034483;28;19918;-86
2022/07/04 15:57:34;;;;;;;;;;;;;;;;;;5037752;28;20345;-86
2022/07/04 15:59:59;;;;;;;;;;;;;;;;;;5037563;28;20235;-86
2022/07/04 16:02:24;;;;;;;;;;;;;;;;;;5037793;28;19917;-86
2022/07/04 16:04:50;;;;;;;;;;;;;;;;;;5019594;28;20232;-84
2022/07/04 16:07:16;;;;;;;;;;;;;;;;;;5003756;28;19960;-85
2022/07/04 16:09:41;;;;;;;;;;;;;;;;;;5010921;28;19921;-84
2022/07/04 16:12:07;;;;;;;;;;;;;;;;;;5048091;28;19952;-85
2022/07/04 16:14:32;;;;;;;;;;;;;;;;;;5037171;28;19963;-85
2022/07/04 16:16:58;;;;;;;;;;;;;;;;;;5037517;28;19925;-85
2022/07/04 16:19:24;;;;;;;;;;;;;;;;;;5037214;28;19917;-84
2022/07/04 16:21:49;;;;;;;;;;;;;;;;;;5037387;28;19924;-85
2022/07/04 16:24:15;;;;;;;;;;;;;;;;;;5003012;28;20343;-84
2022/07/04 16:26:40;;;;;;;;;;;;;;;;;;5037226;28;19923;-85
2022/07/04 16:29:06;;;;;;;;;;;;;;;;;;5049543;28;19921;-85
2022/07/04 16:31:31;;;;;;;;;;;;;;;;;;5020022;28;19932;-85
2022/07/04 16:33:57;;;;;;;;;;;;;;;;;;5003046;28;19981;-85
2022/07/04 16:36:27;;;;;;;;;;;;;;;;;;5019802;28;20240;-86
2022/07/04 16:38:52;;;;;;;;;;;;;;;;;;5019716;28;19956;-85
2022/07/04 16:41:17;;;;;;;;;;;;;;;;;;5036517;28;19924;-85
2022/07/04 16:43:43;;;;;;;;;;;;;;;;;;5036371;28;19917;-85
2022/07/04 16:46:08;;;;;;;;;;;;;;;;;;5037060;28;20003;-85
2022/07/04 16:48:33;;;;;;;;;;;;;;;;;;5040639;28;19917;-85
2022/07/04 16:50:59;;;;;;;;;;;;;;;;;;5044825;28;19921;-86
2022/07/04 16:53:24;;;;;;;;;;;;;;;;;;5037067;28;19917;-85
2022/07/04 16:55:49;;;;;;;;;;;;;;;;;;5036925;28;19917;-85
2022/07/04 16:58:15;;;;;;;;;;;;;;;;;;5036247;28;19917;-86
2022/07/04 17:00:40;;;;;;;;;;;;;;;;;;5036471;28;19983;-86
2022/07/04 17:03:06;;;;;;;;;;;;;;;;;;5036261;28;20121;-85
2022/07/04 17:05:31;;;;;;;;;;;;;;;;;;5002537;28;19917;-85